createdAt,value
2023-03-18T00:00:02.069Z,9.42
2023-03-18T00:01:42.501Z,9.37
2023-03-18T00:03:23.029Z,9.31
2023-03-18T00:05:03.267Z,9.27
2023-03-18T00:06:43.688Z,9.21
2023-03-18T00:08:24.058Z,9.17
2023-03-18T00:10:04.487Z,9.13
2023-03-18T00:11:44.919Z,9.09
2023-03-18T00:13:25.312Z,9.02
2023-03-18T00:15:05.710Z,8.96
2023-03-18T00:16:46.035Z,8.93
2023-03-18T00:18:26.456Z,8.92
2023-03-18T00:20:06.926Z,8.9
2023-03-18T00:21:47.194Z,8.87
2023-03-18T00:23:27.600Z,8.83
2023-03-18T00:25:08.020Z,8.79
2023-03-18T00:26:48.395Z,8.72
2023-03-18T00:28:28.694Z,8.65
2023-03-18T00:30:09.048Z,8.61
2023-03-18T00:31:49.304Z,8.56
2023-03-18T00:33:29.604Z,8.55
2023-03-18T00:35:09.914Z,8.49
2023-03-18T00:36:50.318Z,8.49
2023-03-18T00:38:30.747Z,8.47
2023-03-18T00:40:11.058Z,8.42
2023-03-18T00:41:51.463Z,8.38
2023-03-18T00:43:31.861Z,8.31
2023-03-18T00:45:12.230Z,8.3
2023-03-18T00:46:52.672Z,8.24
2023-03-18T00:48:32.943Z,8.24
2023-03-18T00:50:13.319Z,8.24
2023-03-18T00:51:53.736Z,8.21
2023-03-18T00:53:34.122Z,8.21
2023-03-18T00:55:14.440Z,8.2
2023-03-18T00:56:54.800Z,8.2
2023-03-18T00:58:35.216Z,8.15
2023-03-18T01:00:15.642Z,8.15
2023-03-18T01:01:56.103Z,8.14
2023-03-18T01:03:36.383Z,8.14
2023-03-18T01:05:16.750Z,8.13
2023-03-18T01:06:57.207Z,8.11
2023-03-18T01:08:37.574Z,8.08
2023-03-18T01:10:17.872Z,8.13
2023-03-18T01:11:58.287Z,8.13
2023-03-18T01:13:38.592Z,8.13
2023-03-18T01:15:19.012Z,8.18
2023-03-18T01:16:59.379Z,8.18
2023-03-18T01:18:39.780Z,8.21
2023-03-18T01:20:20.050Z,8.21
2023-03-18T01:22:00.378Z,8.24
2023-03-18T01:23:40.699Z,8.24
2023-03-18T01:25:21.018Z,8.27
2023-03-18T01:27:01.475Z,8.3
2023-03-18T01:28:41.830Z,8.28
2023-03-18T01:30:22.339Z,8.31
2023-03-18T01:32:02.728Z,8.3
2023-03-18T01:33:43.147Z,8.3
2023-03-18T01:35:23.506Z,8.33
2023-03-18T01:37:03.849Z,8.3
2023-03-18T01:38:44.353Z,8.3
2023-03-18T01:40:24.652Z,8.24
2023-03-18T01:42:04.950Z,8.21
2023-03-18T01:43:45.364Z,8.18
2023-03-18T01:45:25.862Z,8.15
2023-03-18T01:47:06.057Z,8.11
2023-03-18T01:48:46.447Z,8.1
2023-03-18T01:50:26.879Z,8.07
2023-03-18T01:52:07.276Z,8.07
2023-03-18T01:53:47.721Z,8.03
2023-03-18T01:55:28.063Z,7.98
2023-03-18T01:57:08.486Z,7.98
2023-03-18T01:58:48.861Z,7.97
2023-03-18T02:00:29.587Z,7.94
2023-03-18T02:02:09.641Z,7.92
2023-03-18T02:03:49.980Z,7.92
2023-03-18T02:05:30.377Z,7.89
2023-03-18T02:07:10.693Z,7.89
2023-03-18T02:08:51.109Z,7.87
2023-03-18T02:10:31.903Z,7.86
2023-03-18T02:12:11.911Z,7.85
2023-03-18T02:13:52.333Z,7.83
2023-03-18T02:15:32.693Z,7.82
2023-03-18T02:17:13.099Z,7.83
2023-03-18T02:18:53.468Z,7.82
2023-03-18T02:20:34.000Z,7.8
2023-03-18T02:22:14.305Z,7.83
2023-03-18T02:23:54.717Z,7.83
2023-03-18T02:25:35.161Z,7.82
2023-03-18T02:27:15.552Z,7.8
2023-03-18T02:28:55.914Z,7.9
2023-03-18T02:30:36.416Z,7.85
2023-03-18T02:32:16.689Z,7.82
2023-03-18T02:33:57.097Z,7.85
2023-03-18T02:35:37.571Z,7.79
2023-03-18T02:37:17.822Z,7.73
2023-03-18T02:38:58.232Z,7.69
2023-03-18T02:40:38.618Z,7.69
2023-03-18T02:42:19.024Z,7.67
2023-03-18T02:43:59.433Z,7.67
2023-03-18T02:45:39.754Z,7.7
2023-03-18T02:47:20.123Z,7.73
2023-03-18T02:49:00.601Z,7.76
2023-03-18T02:50:42.385Z,7.79
2023-03-18T02:52:21.390Z,7.8
2023-03-18T02:54:01.808Z,7.85
2023-03-18T02:55:42.113Z,7.85
2023-03-18T02:57:22.550Z,7.87
2023-03-18T02:59:02.961Z,7.94
2023-03-18T03:00:43.325Z,7.94
2023-03-18T03:02:23.696Z,7.9
2023-03-18T03:04:04.088Z,7.89
2023-03-18T03:05:44.430Z,7.89
2023-03-18T03:07:24.846Z,7.92
2023-03-18T03:09:05.221Z,7.97
2023-03-18T03:10:45.529Z,7.97
2023-03-18T03:12:25.903Z,8.04
2023-03-18T03:14:06.238Z,8.11
2023-03-18T03:15:46.688Z,8.17
2023-03-18T03:17:27.024Z,8.15
2023-03-18T03:19:07.415Z,8.15
2023-03-18T03:20:47.830Z,8.18
2023-03-18T03:22:28.225Z,8.18
2023-03-18T03:24:08.626Z,8.24
2023-03-18T03:25:49.013Z,8.21
2023-03-18T03:27:29.423Z,8.27
2023-03-18T03:29:09.698Z,8.27
2023-03-18T03:30:50.056Z,8.34
2023-03-18T03:32:30.476Z,8.33
2023-03-18T03:34:10.782Z,8.37
2023-03-18T03:35:51.204Z,8.4
2023-03-18T03:37:31.581Z,8.45
2023-03-18T03:39:11.920Z,8.54
2023-03-18T03:40:52.265Z,8.61
2023-03-18T03:42:32.649Z,8.62
2023-03-18T03:44:13.052Z,8.66
2023-03-18T03:45:53.415Z,8.65
2023-03-18T03:47:33.876Z,8.71
2023-03-18T03:49:14.279Z,8.71
2023-03-18T03:50:54.576Z,8.73
2023-03-18T03:52:34.938Z,8.75
2023-03-18T03:54:15.381Z,8.79
2023-03-18T03:55:58.637Z,8.84
2023-03-18T03:57:36.111Z,8.86
2023-03-18T03:59:16.563Z,8.93
2023-03-18T04:00:56.928Z,8.89
2023-03-18T04:02:37.327Z,8.94
2023-03-18T04:04:17.750Z,8.99
2023-03-18T04:05:58.089Z,9.03
2023-03-18T04:07:38.415Z,9
2023-03-18T04:09:18.777Z,9.02
2023-03-18T04:10:59.258Z,9.03
2023-03-18T04:12:39.557Z,9.02
2023-03-18T04:14:19.801Z,9.03
2023-03-18T04:16:00.234Z,9
2023-03-18T04:17:40.465Z,9.03
2023-03-18T04:19:20.757Z,9
2023-03-18T04:21:01.078Z,9
2023-03-18T04:22:41.386Z,8.99
2023-03-18T04:24:21.702Z,9.03
2023-03-18T04:26:01.994Z,9.02
2023-03-18T04:27:42.438Z,9.03
2023-03-18T04:29:22.769Z,9
2023-03-18T04:31:03.213Z,9.04
2023-03-18T04:32:43.585Z,9.06
2023-03-18T04:34:23.939Z,9.06
2023-03-18T04:36:04.446Z,9.06
2023-03-18T04:37:44.772Z,9.04
2023-03-18T04:39:25.130Z,9.04
2023-03-18T04:41:05.611Z,9.03
2023-03-18T04:42:46.015Z,9.03
2023-03-18T04:44:26.346Z,9.02
2023-03-18T04:46:06.753Z,9.02
2023-03-18T04:47:47.086Z,9.02
2023-03-18T04:49:27.481Z,9.03
2023-03-18T04:51:07.810Z,9
2023-03-18T04:52:48.205Z,9
2023-03-18T04:54:28.612Z,8.99
2023-03-18T04:56:09.017Z,8.92
2023-03-18T04:57:49.472Z,8.92
2023-03-18T04:59:29.821Z,8.9
2023-03-18T05:01:10.269Z,8.92
2023-03-18T05:02:50.503Z,9.02
2023-03-18T05:04:30.952Z,9.03
2023-03-18T05:06:11.226Z,9.02
2023-03-18T05:07:51.569Z,8.99
2023-03-18T05:09:31.880Z,9
2023-03-18T05:11:12.207Z,8.94
2023-03-18T05:12:52.529Z,8.94
2023-03-18T05:14:32.890Z,8.94
2023-03-18T05:16:13.263Z,8.9
2023-03-18T05:17:53.628Z,8.86
2023-03-18T05:19:33.936Z,8.82
2023-03-18T05:21:14.267Z,8.8
2023-03-18T05:22:54.601Z,8.84
2023-03-18T05:24:34.967Z,8.89
2023-03-18T05:26:15.376Z,8.84
2023-03-18T05:27:55.787Z,8.84
2023-03-18T05:29:36.136Z,8.92
2023-03-18T05:31:16.617Z,8.98
2023-03-18T05:32:56.957Z,8.99
2023-03-18T05:34:37.324Z,8.94
2023-03-18T05:36:17.781Z,8.98
2023-03-18T05:37:58.085Z,8.98
2023-03-18T05:39:38.482Z,8.94
2023-03-18T05:41:18.885Z,8.93
2023-03-18T05:42:59.318Z,8.94
2023-03-18T05:44:39.690Z,8.89
2023-03-18T05:46:20.145Z,8.89
2023-03-18T05:48:00.349Z,8.87
2023-03-18T05:49:40.728Z,8.87
2023-03-18T05:51:21.135Z,8.87
2023-03-18T05:53:01.556Z,8.84
2023-03-18T05:54:41.960Z,8.83
2023-03-18T05:56:22.321Z,8.8
2023-03-18T05:58:02.705Z,8.79
2023-03-18T05:59:42.984Z,8.76
2023-03-18T06:01:23.305Z,8.76
2023-03-18T06:03:03.804Z,8.71
2023-03-18T06:04:44.110Z,8.63
2023-03-18T06:06:24.503Z,8.59
2023-03-18T06:08:05.098Z,8.58
2023-03-18T06:09:45.444Z,8.55
2023-03-18T06:11:25.835Z,8.51
2023-03-18T06:13:06.255Z,8.52
2023-03-18T06:14:46.544Z,8.55
2023-03-18T06:16:26.960Z,8.56
2023-03-18T06:18:07.415Z,8.49
2023-03-18T06:19:47.863Z,8.45
2023-03-18T06:21:28.267Z,8.47
2023-03-18T06:23:08.733Z,8.45
2023-03-18T06:24:49.236Z,8.48
2023-03-18T06:26:29.596Z,8.51
2023-03-18T06:28:10.017Z,8.52
2023-03-18T06:29:50.411Z,8.54
2023-03-18T06:31:30.807Z,8.56
2023-03-18T06:33:11.168Z,8.61
2023-03-18T06:34:51.544Z,8.63
2023-03-18T06:36:31.941Z,8.66
2023-03-18T06:38:12.330Z,8.71
2023-03-18T06:39:52.745Z,8.75
2023-03-18T06:41:33.079Z,8.84
2023-03-18T06:43:13.573Z,8.86
2023-03-18T06:44:53.888Z,8.93
2023-03-18T06:46:34.387Z,8.92
2023-03-18T06:48:14.737Z,9.04
2023-03-18T06:49:55.167Z,9.04
2023-03-18T06:51:35.623Z,9.11
2023-03-18T06:53:16.033Z,9.19
2023-03-18T06:54:56.436Z,9.26
2023-03-18T06:56:36.832Z,9.29
2023-03-18T06:58:17.298Z,9.34
2023-03-18T06:59:57.717Z,9.38
2023-03-18T07:01:38.102Z,9.44
2023-03-18T07:03:18.544Z,9.5
2023-03-18T07:04:58.848Z,9.54
2023-03-18T07:06:39.143Z,9.68
2023-03-18T07:08:19.540Z,9.74
2023-03-18T07:09:59.971Z,9.86
2023-03-18T07:11:40.370Z,9.93
2023-03-18T07:13:20.784Z,10.02
2023-03-18T07:15:01.176Z,10.16
2023-03-18T07:16:41.468Z,10.3
2023-03-18T07:18:21.837Z,10.46
2023-03-18T07:20:02.238Z,10.64
2023-03-18T07:21:42.746Z,10.85
2023-03-18T07:23:23.107Z,10.96
2023-03-18T07:25:03.508Z,11.22
2023-03-18T07:26:43.978Z,11.44
2023-03-18T07:28:24.400Z,11.66
2023-03-18T07:30:04.764Z,11.87
2023-03-18T07:31:45.237Z,12.09
2023-03-18T07:33:25.573Z,12.28
2023-03-18T07:35:06.007Z,12.5
2023-03-18T07:36:46.354Z,12.7
2023-03-18T07:38:26.746Z,12.84
2023-03-18T07:40:07.213Z,13.03
2023-03-18T07:41:47.545Z,13.22
2023-03-18T07:43:27.955Z,13.34
2023-03-18T07:45:08.293Z,13.42
2023-03-18T07:46:48.815Z,13.38
2023-03-18T07:48:29.151Z,13.34
2023-03-18T07:50:09.550Z,13.41
2023-03-18T07:51:50.037Z,13.54
2023-03-18T07:53:30.398Z,13.62
2023-03-18T07:55:10.741Z,13.66
2023-03-18T07:56:51.137Z,13.7
2023-03-18T07:58:31.540Z,13.8
2023-03-18T08:00:11.938Z,13.99
2023-03-18T08:01:52.382Z,14.11
2023-03-18T08:03:32.798Z,14.14
2023-03-18T08:05:13.207Z,14.38
2023-03-18T08:06:53.505Z,14.52
2023-03-18T08:08:33.903Z,14.62
2023-03-18T08:10:14.299Z,14.76
2023-03-18T08:11:54.730Z,14.75
2023-03-18T08:13:35.194Z,14.86
2023-03-18T08:15:15.597Z,15.13
2023-03-18T08:16:55.882Z,15.36
2023-03-18T08:18:36.216Z,15.47
2023-03-18T08:20:16.499Z,15.51
2023-03-18T08:21:56.790Z,15.47
2023-03-18T08:23:37.170Z,15.51
2023-03-18T08:25:17.525Z,15.8
2023-03-18T08:26:57.959Z,16.05
2023-03-18T08:28:38.346Z,16.11
2023-03-18T08:30:18.739Z,16.17
2023-03-18T08:31:59.045Z,16.16
2023-03-18T08:33:39.510Z,16.43
2023-03-18T08:35:21.358Z,16.47
2023-03-18T08:37:00.296Z,16.52
2023-03-18T08:38:40.700Z,16.68
2023-03-18T08:40:21.144Z,16.61
2023-03-18T08:42:01.574Z,16.61
2023-03-18T08:43:41.940Z,16.84
2023-03-18T08:45:22.438Z,16.8
2023-03-18T08:47:02.844Z,16.78
2023-03-18T08:48:43.290Z,16.9
2023-03-18T08:50:23.699Z,16.94
2023-03-18T08:52:04.074Z,17
2023-03-18T08:53:44.475Z,17.02
2023-03-18T08:55:24.825Z,16.96
2023-03-18T08:57:05.244Z,17.01
2023-03-18T08:58:45.658Z,17.09
2023-03-18T09:00:26.142Z,17.15
2023-03-18T09:02:06.473Z,17.17
2023-03-18T09:03:47.009Z,17.15
2023-03-18T09:05:27.315Z,17.25
2023-03-18T09:07:07.722Z,17.3
2023-03-18T09:08:48.106Z,17.62
2023-03-18T09:10:28.454Z,17.43
2023-03-18T09:12:08.838Z,17.46
2023-03-18T09:13:49.200Z,17.43
2023-03-18T09:15:29.804Z,17.6
2023-03-18T09:17:10.144Z,17.56
2023-03-18T09:18:50.539Z,17.73
2023-03-18T09:20:30.940Z,17.86
2023-03-18T09:22:11.313Z,17.86
2023-03-18T09:23:51.698Z,18.09
2023-03-18T09:25:32.320Z,18.29
2023-03-18T09:27:12.501Z,18.15
2023-03-18T09:28:52.970Z,18.12
2023-03-18T09:30:33.406Z,18.21
2023-03-18T09:32:13.659Z,18.55
2023-03-18T09:33:54.061Z,18.7
2023-03-18T09:35:35.109Z,19.04
2023-03-18T09:37:14.961Z,18.9
2023-03-18T09:38:55.322Z,18.82
2023-03-18T09:40:38.010Z,18.92
2023-03-18T09:42:16.150Z,19.25
2023-03-18T09:43:56.602Z,19.27
2023-03-18T09:45:37.016Z,19.25
2023-03-18T09:47:17.634Z,18.97
2023-03-18T09:48:57.812Z,18.45
2023-03-18T09:50:38.267Z,18.08
2023-03-18T09:52:18.533Z,17.93
2023-03-18T09:53:58.947Z,17.97
2023-03-18T09:55:39.425Z,17.83
2023-03-18T09:57:19.816Z,17.74
2023-03-18T09:59:00.179Z,17.73
2023-03-18T10:00:40.540Z,17.56
2023-03-18T10:02:20.965Z,17.5
2023-03-18T10:04:01.448Z,17.9
2023-03-18T10:05:41.736Z,17.97
2023-03-18T10:07:22.034Z,18.11
2023-03-18T10:09:02.345Z,18.09
2023-03-18T10:10:42.655Z,17.67
2023-03-18T10:12:23.014Z,17.87
2023-03-18T10:14:03.465Z,18.27
2023-03-18T10:15:43.910Z,18.89
2023-03-18T10:17:24.320Z,19.3
2023-03-18T10:19:04.757Z,19.25
2023-03-18T10:20:45.145Z,19.68
2023-03-18T10:22:25.555Z,19.52
2023-03-18T10:24:05.970Z,19.31
2023-03-18T10:25:46.446Z,19
2023-03-18T10:27:26.806Z,18.79
2023-03-18T10:29:07.254Z,18.63
2023-03-18T10:30:47.623Z,18.54
2023-03-18T10:32:42.623Z,18.36
2023-03-18T10:34:08.249Z,18.21
2023-03-18T10:35:48.632Z,18.42
2023-03-18T10:37:29.026Z,18.63
2023-03-18T10:39:09.395Z,18.46
2023-03-18T10:40:49.777Z,18.24
2023-03-18T10:42:30.162Z,18.44
2023-03-18T10:44:10.587Z,18.28
2023-03-18T10:45:50.961Z,18.09
2023-03-18T10:47:31.470Z,17.84
2023-03-18T10:49:11.717Z,17.63
2023-03-18T10:50:52.085Z,17.59
2023-03-18T10:52:32.441Z,17.29
2023-03-18T10:54:12.806Z,17.14
2023-03-18T10:55:54.911Z,16.92
2023-03-18T10:57:33.658Z,16.8
2023-03-18T10:59:14.073Z,16.84
2023-03-18T11:00:54.437Z,16.96
2023-03-18T11:02:34.975Z,16.84
2023-03-18T11:04:15.275Z,16.84
2023-03-18T11:05:55.666Z,17.22
2023-03-18T11:07:36.078Z,17.63
2023-03-18T11:09:16.462Z,17.97
2023-03-18T11:10:56.893Z,18.36
2023-03-18T11:12:37.249Z,18.17
2023-03-18T11:14:17.680Z,18.17
2023-03-18T11:15:58.117Z,18.48
2023-03-18T11:17:38.521Z,18.24
2023-03-18T11:19:18.936Z,18.23
2023-03-18T11:20:59.357Z,18.15
2023-03-18T11:22:39.620Z,18.12
2023-03-18T11:24:20.086Z,18
2023-03-18T11:26:00.452Z,18.21
2023-03-18T11:27:40.740Z,18.54
2023-03-18T11:29:21.074Z,18.49
2023-03-18T11:31:01.444Z,18.23
2023-03-18T11:32:41.847Z,18.03
2023-03-18T11:34:22.070Z,18.07
2023-03-18T11:36:02.561Z,17.97
2023-03-18T11:37:42.909Z,17.98
2023-03-18T11:39:23.291Z,18.04
2023-03-18T11:41:03.698Z,18.08
2023-03-18T11:42:44.126Z,18.24
2023-03-18T11:44:24.525Z,18.34
2023-03-18T11:46:04.932Z,18.54
2023-03-18T11:47:45.303Z,18.35
2023-03-18T11:49:25.800Z,18.42
2023-03-18T11:51:06.191Z,18.32
2023-03-18T11:52:46.670Z,18.15
2023-03-18T11:54:27.029Z,17.87
2023-03-18T11:56:07.375Z,17.79
2023-03-18T11:57:47.839Z,17.87
2023-03-18T11:59:28.250Z,17.84
2023-03-18T12:01:08.616Z,17.97
2023-03-18T12:02:49.015Z,18.01
2023-03-18T12:04:29.466Z,17.93
2023-03-18T12:06:09.753Z,17.83
2023-03-18T12:07:50.079Z,17.81
2023-03-18T12:09:30.512Z,18.15
2023-03-18T12:11:10.893Z,18.48
2023-03-18T12:12:51.269Z,18.92
2023-03-18T12:14:31.766Z,19.03
2023-03-18T12:16:12.232Z,19.11
2023-03-18T12:17:52.525Z,19.15
2023-03-18T12:19:32.916Z,19.37
2023-03-18T12:21:13.277Z,19.57
2023-03-18T12:22:53.767Z,19.45
2023-03-18T12:24:34.236Z,19.27
2023-03-18T12:26:14.564Z,19.24
2023-03-18T12:27:54.965Z,19.2
2023-03-18T12:29:35.446Z,19.15
2023-03-18T12:31:15.906Z,19.07
2023-03-18T12:32:56.385Z,19.04
2023-03-18T12:34:36.694Z,19.04
2023-03-18T12:36:17.058Z,19
2023-03-18T12:37:57.465Z,19
2023-03-18T12:39:37.890Z,18.94
2023-03-18T12:41:18.317Z,18.67
2023-03-18T12:42:58.636Z,18.42
2023-03-18T12:44:39.037Z,18.31
2023-03-18T12:46:19.494Z,18.21
2023-03-18T12:47:59.796Z,18.18
2023-03-18T12:49:40.130Z,18.15
2023-03-18T12:51:20.475Z,18.27
2023-03-18T12:53:00.935Z,18.27
2023-03-18T12:54:41.268Z,18.21
2023-03-18T12:56:21.666Z,18.18
2023-03-18T12:58:02.091Z,18.09
2023-03-18T12:59:42.540Z,18.14
2023-03-18T13:01:23.068Z,18.18
2023-03-18T13:03:04.979Z,18.28
2023-03-18T13:04:43.689Z,18.46
2023-03-18T13:06:24.095Z,18.72
2023-03-18T13:08:04.468Z,18.82
2023-03-18T13:09:44.823Z,18.89
2023-03-18T13:11:25.240Z,18.94
2023-03-18T13:13:05.611Z,18.79
2023-03-18T13:14:45.977Z,18.7
2023-03-18T13:16:26.357Z,18.65
2023-03-18T13:18:06.739Z,18.56
2023-03-18T13:19:47.165Z,18.51
2023-03-18T13:21:27.622Z,18.51
2023-03-18T13:23:08.052Z,18.39
2023-03-18T13:24:48.464Z,18.35
2023-03-18T13:26:28.900Z,18.29
2023-03-18T13:28:09.280Z,18.41
2023-03-18T13:29:49.664Z,18.44
2023-03-18T13:31:30.029Z,18.46
2023-03-18T13:33:10.628Z,18.41
2023-03-18T13:34:50.934Z,18.52
2023-03-18T13:36:31.323Z,18.48
2023-03-18T13:38:11.692Z,18.55
2023-03-18T13:39:52.164Z,18.75
2023-03-18T13:41:32.697Z,18.92
2023-03-18T13:43:13.051Z,19.1
2023-03-18T13:44:53.484Z,19.5
2023-03-18T13:46:33.900Z,19.72
2023-03-18T13:48:14.195Z,19.57
2023-03-18T13:49:54.579Z,19.5
2023-03-18T13:51:34.959Z,19.57
2023-03-18T13:53:15.471Z,19.6
2023-03-18T13:54:55.926Z,19.61
2023-03-18T13:56:36.285Z,19.73
2023-03-18T13:58:16.711Z,19.83
2023-03-18T13:59:57.001Z,19.92
2023-03-18T14:01:37.400Z,20.09
2023-03-18T14:03:17.903Z,20.16
2023-03-18T14:04:58.179Z,20.3
2023-03-18T14:06:38.524Z,20.21
2023-03-18T14:07:11.722Z,0
2023-03-18T14:08:52.087Z,20.13
2023-03-18T14:10:20.075Z,0
2023-03-18T14:13:47.264Z,0
2023-03-18T14:14:26.632Z,0
2023-03-18T14:16:07.003Z,19.73
2023-03-18T14:16:52.880Z,0
2023-03-18T14:18:33.184Z,20.05
2023-03-18T14:20:13.592Z,19.97
2023-03-18T14:21:54.025Z,19.86
2023-03-18T14:23:34.437Z,19.76
2023-03-18T14:25:18.285Z,0
2023-03-18T14:29:55.064Z,0
2023-03-18T14:31:35.440Z,19.48
2023-03-18T14:33:15.755Z,19.48
2023-03-18T14:34:56.126Z,19.55
2023-03-18T14:36:36.548Z,19.57
2023-03-18T14:38:16.978Z,19.58
2023-03-18T14:39:57.362Z,19.89
2023-03-18T14:41:37.788Z,20.17
2023-03-18T14:43:18.174Z,20.21
2023-03-18T14:44:58.649Z,20.59
2023-03-18T14:46:39.236Z,20.58
2023-03-18T14:48:19.558Z,20.68
2023-03-18T14:50:00.011Z,20.74
2023-03-18T14:51:40.332Z,20.52
2023-03-18T14:53:20.753Z,20.5
2023-03-18T14:55:01.121Z,20.5
2023-03-18T14:56:41.438Z,20.4
2023-03-18T14:58:21.743Z,20.19
2023-03-18T15:00:02.184Z,19.99
2023-03-18T15:01:42.470Z,19.86
2023-03-18T15:03:22.877Z,20.08
2023-03-18T15:05:03.274Z,20.01
2023-03-18T15:06:43.670Z,19.97
2023-03-18T15:08:25.163Z,19.85
2023-03-18T15:10:04.521Z,19.85
2023-03-18T15:11:44.965Z,19.8
2023-03-18T15:13:25.384Z,19.68
2023-03-18T15:15:05.806Z,19.54
2023-03-18T15:16:46.242Z,19.52
2023-03-18T15:18:26.624Z,19.57
2023-03-18T15:20:07.054Z,19.58
2023-03-18T15:21:47.457Z,19.35
2023-03-18T15:23:27.918Z,19.38
2023-03-18T15:25:08.374Z,19.52
2023-03-18T15:26:48.709Z,19.61
2023-03-18T15:28:28.979Z,19.57
2023-03-18T15:30:09.427Z,19.61
2023-03-18T15:31:49.859Z,19.65
2023-03-18T15:33:30.078Z,19.78
2023-03-18T15:35:10.516Z,20.03
2023-03-18T15:36:50.922Z,20.12
2023-03-18T15:38:31.384Z,20.19
2023-03-18T15:40:11.814Z,20.15
2023-03-18T15:41:52.212Z,20.01
2023-03-18T15:43:32.638Z,19.97
2023-03-18T15:45:13.057Z,19.93
2023-03-18T15:46:53.435Z,19.95
2023-03-18T15:48:33.841Z,20.17
2023-03-18T15:50:14.216Z,20.43
2023-03-18T15:51:54.689Z,20.48
2023-03-18T15:53:35.189Z,20.58
2023-03-18T15:55:15.566Z,20.7
2023-03-18T15:56:55.964Z,20.63
2023-03-18T15:58:36.358Z,20.65
2023-03-18T16:00:16.792Z,20.7
2023-03-18T16:01:57.188Z,20.74
2023-03-18T16:03:37.528Z,20.89
2023-03-18T16:05:17.922Z,20.94
2023-03-18T16:06:58.351Z,20.91
2023-03-18T16:08:38.661Z,20.99
2023-03-18T16:10:19.111Z,21.05
2023-03-18T16:11:59.568Z,20.79
2023-03-18T16:13:43.013Z,20.37
2023-03-18T16:15:20.425Z,20.17
2023-03-18T16:17:00.913Z,19.92
2023-03-18T16:18:44.305Z,19.71
2023-03-18T16:20:21.653Z,19.44
2023-03-18T16:22:02.051Z,19.28
2023-03-18T16:23:42.551Z,19.06
2023-03-18T16:25:22.963Z,18.77
2023-03-18T16:27:03.399Z,18.49
2023-03-18T16:28:45.494Z,18.25
2023-03-18T16:30:24.276Z,18.08
2023-03-18T16:32:04.797Z,17.9
2023-03-18T16:33:45.242Z,17.73
2023-03-18T16:35:25.653Z,17.54
2023-03-18T16:37:06.028Z,17.35
2023-03-18T16:38:46.505Z,17.19
2023-03-18T16:40:26.907Z,17.02
2023-03-18T16:41:40.830Z,0
2023-03-18T16:43:21.203Z,16.71
2023-03-18T16:45:01.701Z,16.5
2023-03-18T16:45:36.106Z,0
2023-03-18T16:47:15.837Z,16.26
2023-03-18T16:48:56.169Z,16.08
2023-03-18T16:50:36.637Z,15.94
2023-03-18T16:56:41.527Z,0
2023-03-18T16:58:21.853Z,15.11
2023-03-18T17:00:02.213Z,15.03
2023-03-18T17:00:28.742Z,0
2023-03-18T17:02:09.137Z,14.85
2023-03-18T17:03:49.493Z,14.74
2023-03-18T17:05:29.858Z,14.65
2023-03-18T17:07:10.276Z,14.53
2023-03-18T17:08:50.705Z,14.44
2023-03-18T17:10:31.120Z,14.38
2023-03-18T17:12:11.522Z,14.35
2023-03-18T17:13:52.090Z,14.34
2023-03-18T17:15:32.926Z,14.25
2023-03-18T17:17:12.888Z,14.23
2023-03-18T17:18:53.336Z,14.23
2023-03-18T17:20:33.821Z,14.2
2023-03-18T17:22:14.228Z,14.14
2023-03-18T17:23:54.600Z,14.11
2023-03-18T17:25:35.393Z,14.11
2023-03-18T17:27:15.385Z,14.14
2023-03-18T17:28:55.824Z,14.14
2023-03-18T17:30:36.243Z,14.13
2023-03-18T17:32:16.513Z,14.17
2023-03-18T17:33:56.951Z,14.25
2023-03-18T17:35:37.422Z,14.32
2023-03-18T17:37:17.781Z,14.31
2023-03-18T17:38:58.260Z,14.4
2023-03-18T17:40:41.681Z,14.45
2023-03-18T17:42:19.017Z,14.51
2023-03-18T17:43:59.401Z,14.51
2023-03-18T17:45:39.764Z,14.48
2023-03-18T17:47:20.150Z,14.61
2023-03-18T17:49:00.500Z,14.59
2023-03-18T17:50:40.813Z,14.52
2023-03-18T17:52:21.245Z,14.41
2023-03-18T17:54:01.592Z,14.32
2023-03-18T17:55:41.961Z,14.23
2023-03-18T17:57:22.381Z,14.09
2023-03-18T17:59:02.851Z,14.02
2023-03-18T18:00:43.245Z,13.87
2023-03-18T18:02:23.664Z,13.77
2023-03-18T18:04:04.067Z,13.61
2023-03-18T18:05:44.403Z,13.49
2023-03-18T18:07:24.770Z,13.42
2023-03-18T18:09:05.207Z,13.37
2023-03-18T18:10:45.559Z,13.29
2023-03-18T18:12:25.978Z,13.22
2023-03-18T18:14:06.363Z,13.13
2023-03-18T18:15:46.767Z,13.06
2023-03-18T18:17:27.106Z,13
2023-03-18T18:19:07.511Z,12.9
2023-03-18T18:20:47.884Z,12.8
2023-03-18T18:22:28.295Z,12.77
2023-03-18T18:24:08.723Z,12.67
2023-03-18T18:25:49.045Z,12.62
2023-03-18T18:27:29.470Z,12.52
2023-03-18T18:29:09.849Z,12.46
2023-03-18T18:30:50.302Z,12.43
2023-03-18T18:32:30.734Z,12.39
2023-03-18T18:34:11.013Z,12.33
2023-03-18T18:35:51.474Z,12.31
2023-03-18T18:37:38.956Z,12.24
2023-03-18T18:39:12.285Z,12.19
2023-03-18T18:40:52.682Z,12.17
2023-03-18T18:42:33.084Z,12.14
2023-03-18T18:44:13.548Z,12.12
2023-03-18T18:45:53.955Z,12.12
2023-03-18T18:47:34.512Z,12.08
2023-03-18T18:49:14.845Z,12.04
2023-03-18T18:50:55.229Z,12.02
2023-03-18T18:52:35.701Z,11.98
2023-03-18T18:54:16.096Z,11.95
2023-03-18T18:55:56.454Z,11.95
2023-03-18T18:57:36.889Z,11.95
2023-03-18T18:59:17.386Z,11.92
2023-03-18T19:00:57.916Z,11.92
2023-03-18T19:02:38.175Z,11.92
2023-03-18T19:04:18.565Z,11.98
2023-03-18T19:05:58.875Z,11.97
2023-03-18T19:07:39.288Z,11.94
2023-03-18T19:09:19.753Z,11.95
2023-03-18T19:11:00.218Z,11.92
2023-03-18T19:12:40.633Z,11.92
2023-03-18T19:14:21.000Z,11.87
2023-03-18T19:16:01.447Z,11.88
2023-03-18T19:17:41.791Z,11.85
2023-03-18T19:19:22.413Z,11.84
2023-03-18T19:21:02.688Z,11.78
2023-03-18T19:22:43.127Z,11.8
2023-03-18T19:24:23.519Z,11.77
2023-03-18T19:26:03.887Z,11.73
2023-03-18T19:27:44.356Z,11.71
2023-03-18T19:29:24.731Z,11.7
2023-03-18T19:31:05.102Z,11.73
2023-03-18T19:32:45.538Z,11.76
2023-03-18T19:34:25.853Z,11.81
2023-03-18T19:36:06.244Z,11.85
2023-03-18T19:37:46.666Z,11.91
2023-03-18T19:39:27.041Z,11.9
2023-03-18T19:41:07.424Z,11.85
2023-03-18T19:41:35.353Z,0
2023-03-18T19:43:15.734Z,11.78
2023-03-18T19:44:56.107Z,11.74
2023-03-18T19:46:36.468Z,11.73
2023-03-18T19:48:19.858Z,11.71
2023-03-18T19:49:10.396Z,0
2023-03-18T19:50:50.872Z,11.69
2023-03-18T19:52:31.249Z,11.63
2023-03-18T19:54:11.622Z,11.59
2023-03-18T19:55:52.068Z,11.54
2023-03-18T19:57:32.445Z,11.53
2023-03-18T19:59:12.937Z,11.5
2023-03-18T20:00:53.297Z,11.43
2023-03-18T20:02:33.723Z,11.4
2023-03-18T20:04:14.184Z,11.33
2023-03-18T20:05:46.309Z,0
2023-03-18T20:08:18.194Z,0
2023-03-18T20:10:51.806Z,0
2023-03-18T20:13:59.442Z,0
2023-03-18T20:15:39.732Z,11.02
2023-03-18T20:17:20.111Z,10.96
2023-03-18T20:19:00.550Z,10.92
2023-03-18T20:20:41.122Z,10.88
2023-03-18T20:22:21.415Z,10.84
2023-03-18T20:24:01.797Z,10.76
2023-03-18T20:26:51.524Z,0
2023-03-18T20:28:31.826Z,10.71
2023-03-18T20:30:12.098Z,10.7
2023-03-18T20:31:52.521Z,10.7
2023-03-18T20:33:32.770Z,10.72
2023-03-18T20:35:13.152Z,10.71
2023-03-18T20:36:53.519Z,10.71
2023-03-18T20:38:37.097Z,10.68
2023-03-18T20:40:14.521Z,10.65
2023-03-18T20:41:54.853Z,10.61
2023-03-18T20:43:35.301Z,10.61
2023-03-18T20:45:15.844Z,10.63
2023-03-18T20:46:56.225Z,10.58
2023-03-18T20:48:36.539Z,10.6
2023-03-18T20:50:16.829Z,10.57
2023-03-18T20:51:57.130Z,10.57
2023-03-18T20:53:37.444Z,10.58
2023-03-18T20:55:17.751Z,10.54
2023-03-18T20:56:58.050Z,10.53
2023-03-18T20:58:38.320Z,10.46
2023-03-18T21:00:18.811Z,10.44
2023-03-18T21:01:59.150Z,10.41
2023-03-18T21:03:39.657Z,10.37
2023-03-18T21:05:20.000Z,10.35
2023-03-18T21:07:00.490Z,10.3
2023-03-18T21:08:40.890Z,10.26
2023-03-18T21:10:21.302Z,10.21
2023-03-18T21:12:01.724Z,10.19
2023-03-18T21:13:42.116Z,10.16
2023-03-18T21:15:22.546Z,10.13
2023-03-18T21:17:03.172Z,10.1
2023-03-18T21:18:43.328Z,10.07
2023-03-18T21:20:23.737Z,10.07
2023-03-18T21:22:04.189Z,10.05
2023-03-18T21:23:44.632Z,10.05
2023-03-18T21:25:25.046Z,10
2023-03-18T21:27:05.965Z,9.99
2023-03-18T21:28:45.716Z,9.99
2023-03-18T21:30:26.121Z,9.98
2023-03-18T21:32:06.529Z,9.95
2023-03-18T21:33:46.898Z,9.93
2023-03-18T21:35:27.313Z,9.9
2023-03-18T21:37:07.707Z,9.9
2023-03-18T21:38:48.081Z,9.85
2023-03-18T21:40:28.470Z,9.88
2023-03-18T21:42:08.939Z,9.89
2023-03-18T21:43:49.392Z,9.89
2023-03-18T21:45:29.809Z,9.9
2023-03-18T21:47:10.254Z,9.89
2023-03-18T21:48:50.648Z,9.88
2023-03-18T21:50:31.045Z,9.89
2023-03-18T21:52:11.495Z,9.86
2023-03-18T21:53:51.949Z,9.84
2023-03-18T21:55:32.782Z,9.86
2023-03-18T21:57:12.817Z,9.88
2023-03-18T21:58:53.120Z,9.86
2023-03-18T22:00:33.441Z,9.86
2023-03-18T22:02:13.778Z,9.84